createdAt,value
2019-03-09T01:20:35.496Z,24.00
2019-03-09T01:23:04.028Z,24.20
2019-03-09T01:25:32.476Z,24.20
2019-03-09T01:28:00.991Z,24.20
2019-03-09T01:30:29.458Z,24.20
2019-03-09T01:32:57.943Z,24.20
2019-03-09T01:35:26.613Z,24.20
2019-03-09T01:37:55.280Z,24.10
2019-03-09T01:40:23.829Z,24.10
2019-03-09T01:42:52.322Z,24.10
2019-03-09T01:45:20.922Z,24.10
2019-03-09T01:47:49.412Z,24.10
2019-03-09T01:50:17.936Z,24.10
2019-03-09T01:52:46.483Z,24.10
2019-03-09T01:55:14.989Z,24.00
2019-03-09T01:57:43.466Z,24.10
2019-03-09T02:00:17.075Z,24.00
2019-03-09T02:02:45.673Z,24.00
2019-03-09T02:05:14.903Z,24.00
2019-03-09T02:07:43.400Z,24.00
2019-03-09T02:10:13.987Z,24.00
2019-03-09T02:12:42.599Z,24.00
2019-03-09T02:15:15.619Z,24.00
2019-03-09T02:17:44.090Z,24.00
2019-03-09T02:20:16.681Z,24.00
2019-03-09T02:22:45.151Z,24.00
2019-03-09T02:25:13.856Z,24.00
2019-03-09T02:27:42.389Z,24.00
2019-03-09T02:30:16.892Z,24.00
2019-03-09T02:32:45.414Z,23.90
2019-03-09T02:35:17.711Z,23.90
2019-03-09T02:37:47.318Z,23.90
2019-03-09T02:40:22.799Z,23.90
2019-03-09T02:42:50.566Z,23.90
2019-03-09T02:45:27.338Z,23.90
2019-03-09T02:47:55.894Z,23.90
2019-03-09T02:50:24.594Z,23.90
2019-03-09T02:52:53.127Z,23.90
2019-03-09T02:55:21.609Z,23.90
2019-03-09T02:57:50.093Z,23.90
2019-03-09T03:00:19.995Z,23.90
2019-03-09T03:02:55.617Z,23.90
2019-03-09T03:05:24.081Z,23.90
2019-03-09T03:07:52.545Z,23.90
2019-03-09T03:10:21.107Z,23.90
2019-03-09T03:12:49.584Z,23.90
2019-03-09T17:27:48.557Z,24.00
2019-03-09T19:19:38.496Z,24.60
2019-03-09T19:22:07.038Z,24.80
2019-03-09T19:24:35.529Z,24.90
2019-03-09T19:27:04.514Z,24.90
2019-03-09T19:29:32.996Z,24.80
2019-03-09T19:32:01.580Z,24.90
2019-03-09T19:34:51.337Z,25.10
2019-03-09T19:37:19.810Z,25.20
2019-03-09T19:39:48.630Z,25.30
2019-03-09T19:42:17.555Z,25.40
2019-03-09T19:44:46.404Z,25.50
2019-03-09T19:47:15.017Z,25.60
2019-03-09T19:49:43.491Z,25.50
2019-03-09T19:52:12.081Z,25.40
2019-03-09T19:54:40.548Z,25.30
2019-03-09T19:57:09.066Z,25.30
2019-03-09T19:59:37.620Z,25.30
2019-03-09T20:02:06.419Z,25.30
2019-03-09T20:04:34.987Z,25.20
2019-03-09T20:07:03.970Z,25.20
2019-03-09T20:09:32.487Z,25.20
2019-03-09T20:12:00.961Z,25.20
2019-03-09T20:14:29.512Z,25.10
2019-03-09T20:16:58.257Z,25.30
2019-03-09T20:19:26.895Z,25.40
2019-03-09T20:21:55.442Z,25.60
2019-03-09T20:24:24.370Z,26.10
2019-03-09T20:26:52.831Z,26.20
2019-03-09T20:29:21.338Z,26.20
2019-03-09T20:31:49.808Z,26.50
2019-03-09T20:34:18.343Z,26.90
2019-03-09T20:36:46.870Z,27.30
2019-03-09T20:39:15.336Z,27.70
2019-03-09T20:41:44.014Z,27.30
2019-03-09T20:44:12.592Z,27.30
2019-03-09T20:46:42.214Z,27.10
2019-03-09T20:49:11.088Z,27.10
2019-03-09T20:51:39.585Z,26.80
2019-03-09T20:54:08.173Z,26.60
2019-03-09T20:56:36.678Z,26.40
2019-03-09T20:59:05.196Z,26.20
2019-03-09T21:01:34.229Z,26.20
2019-03-09T21:04:02.801Z,26.00
2019-03-09T21:06:31.418Z,26.00
2019-03-09T21:08:59.908Z,26.10
2019-03-09T21:11:29.232Z,26.20
2019-03-09T21:13:58.103Z,26.20
2019-03-09T21:16:28.894Z,26.30
2019-03-09T21:18:56.786Z,26.10
2019-03-09T21:21:25.772Z,26.00
2019-03-09T21:23:54.256Z,25.90
2019-03-09T21:26:22.747Z,25.80
2019-03-09T21:28:51.259Z,25.70
2019-03-09T21:31:19.723Z,25.70
2019-03-09T21:33:48.272Z,25.70
2019-03-09T21:36:16.856Z,25.60
2019-03-09T21:38:45.431Z,25.60
2019-03-09T21:41:13.950Z,25.50
2019-03-09T21:43:43.044Z,25.50
2019-03-09T21:46:11.560Z,25.40
2019-03-09T21:48:40.599Z,25.30
2019-03-09T21:51:09.197Z,25.20
2019-03-09T21:53:37.723Z,25.30
2019-03-09T21:56:06.200Z,25.20
2019-03-09T21:58:34.690Z,25.10
2019-03-09T22:01:03.267Z,25.00
2019-03-09T22:03:31.796Z,24.90
2019-03-09T22:06:05.935Z,24.90
2019-03-09T22:08:30.451Z,24.90
2019-03-09T22:10:58.952Z,24.80
2019-03-09T22:13:27.451Z,24.70
2019-03-09T22:15:55.947Z,24.70
2019-03-09T22:18:24.434Z,24.60
2019-03-09T22:20:52.954Z,24.60
2019-03-09T22:23:21.439Z,24.50
2019-03-09T22:25:49.964Z,24.50
2019-03-09T22:28:18.528Z,24.40
2019-03-09T22:30:47.129Z,24.40
2019-03-09T22:33:15.610Z,24.30
2019-03-09T22:35:44.211Z,24.30
2019-03-09T22:38:14.943Z,24.30
2019-03-09T22:40:42.875Z,24.20
2019-03-09T22:43:11.349Z,24.20
2019-03-09T22:45:39.923Z,24.20
2019-03-09T22:48:08.468Z,24.20
2019-03-09T22:50:36.994Z,24.10
2019-03-09T22:53:05.531Z,24.10
2019-03-09T22:55:34.052Z,24.10
2019-03-09T22:58:02.593Z,24.10
2019-03-09T23:00:31.577Z,24.00
2019-03-09T23:03:00.107Z,24.00
2019-03-09T23:05:28.579Z,24.00
2019-03-09T23:07:57.092Z,24.00
2019-03-09T23:10:27.206Z,24.00
2019-03-09T23:12:55.679Z,24.00
2019-03-09T23:15:24.224Z,23.90
2019-03-09T23:17:52.811Z,23.90
2019-03-09T23:20:21.343Z,23.90
2019-03-09T23:22:49.804Z,23.90
2019-03-09T23:25:18.327Z,23.90
2019-03-09T23:27:46.798Z,23.90
2019-03-09T23:30:20.827Z,23.80
2019-03-09T23:32:49.297Z,23.90
2019-03-09T23:35:18.009Z,23.90
2019-03-09T23:37:47.316Z,24.00
2019-03-09T23:40:21.245Z,23.90
2019-03-09T23:42:49.801Z,24.00
2019-03-09T23:45:20.973Z,24.10
2019-03-09T23:47:50.546Z,24.10
2019-03-09T23:50:19.054Z,24.20
2019-03-09T23:52:47.648Z,24.20
2019-03-09T23:55:21.842Z,24.20
2019-03-09T23:57:46.945Z,24.30
